sensor_id;sensor_type;location;lat;lon;timestamp;pressure;altitude;pressure_sealevel;temperature;humidity
9721;BME280;4899;42.644;23.366;2023-02-17T00:00:11;95146.13;;;1.90;96.87
9721;BME280;4899;42.644;23.366;2023-02-17T00:02:37;95138.44;;;1.85;96.63
9721;BME280;4899;42.644;23.366;2023-02-17T00:05:04;95123.22;;;1.85;97.47
9721;BME280;4899;42.644;23.366;2023-02-17T00:07:31;95139.06;;;1.92;97.73
9721;BME280;4899;42.644;23.366;2023-02-17T00:09:57;95136.44;;;1.87;96.24
9721;BME280;4899;42.644;23.366;2023-02-17T00:12:26;95154.19;;;1.87;99.22
9721;BME280;4899;42.644;23.366;2023-02-17T00:14:51;95139.28;;;1.74;99.76
9721;BME280;4899;42.644;23.366;2023-02-17T00:17:18;95134.66;;;1.71;100.00
9721;BME280;4899;42.644;23.366;2023-02-17T00:19:44;95137.72;;;1.73;100.00
9721;BME280;4899;42.644;23.366;2023-02-17T00:22:09;95129.41;;;1.61;100.00
9721;BME280;4899;42.644;23.366;2023-02-17T00:24:39;95128.34;;;1.57;100.00
9721;BME280;4899;42.644;23.366;2023-02-17T00:27:16;95127.56;;;1.56;100.00
9721;BME280;4899;42.644;23.366;2023-02-17T00:29:42;95130.88;;;1.57;100.00
9721;BME280;4899;42.644;23.366;2023-02-17T00:32:07;95125.19;;;1.49;100.00
9721;BME280;4899;42.644;23.366;2023-02-17T00:34:34;95130.78;;;1.51;100.00
9721;BME280;4899;42.644;23.366;2023-02-17T00:37:00;95113.34;;;1.55;99.94
9721;BME280;4899;42.644;23.366;2023-02-17T00:39:26;95111.66;;;1.61;99.90
9721;BME280;4899;42.644;23.366;2023-02-17T00:41:52;95117.91;;;1.70;99.52
9721;BME280;4899;42.644;23.366;2023-02-17T00:44:20;95107.84;;;1.75;98.15
9721;BME280;4899;42.644;23.366;2023-02-17T00:46:47;95107.28;;;1.73;98.57
9721;BME280;4899;42.644;23.366;2023-02-17T00:49:18;95106.41;;;1.79;100.00
9721;BME280;4899;42.644;23.366;2023-02-17T00:51:44;95098.56;;;1.80;98.28
9721;BME280;4899;42.644;23.366;2023-02-17T00:54:11;95106.94;;;1.81;96.62
9721;BME280;4899;42.644;23.366;2023-02-17T00:56:37;95110.78;;;1.83;97.07
9721;BME280;4899;42.644;23.366;2023-02-17T00:59:03;95107.72;;;1.81;98.13
9721;BME280;4899;42.644;23.366;2023-02-17T01:01:40;95103.78;;;1.74;100.00
9721;BME280;4899;42.644;23.366;2023-02-17T01:04:06;95100.59;;;1.67;100.00
9721;BME280;4899;42.644;23.366;2023-02-17T01:06:34;95101.31;;;1.62;100.00
9721;BME280;4899;42.644;23.366;2023-02-17T01:09:00;95104.91;;;1.49;100.00
9721;BME280;4899;42.644;23.366;2023-02-17T01:11:31;95104.41;;;1.36;100.00
9721;BME280;4899;42.644;23.366;2023-02-17T01:13:59;95102.47;;;1.26;100.00
9721;BME280;4899;42.644;23.366;2023-02-17T01:16:30;95099.28;;;1.19;100.00
9721;BME280;4899;42.644;23.366;2023-02-17T01:19:00;95101.53;;;1.04;100.00
9721;BME280;4899;42.644;23.366;2023-02-17T01:21:28;95101.28;;;0.77;100.00
9721;BME280;4899;42.644;23.366;2023-02-17T01:23:57;95085.22;;;0.59;100.00
9721;BME280;4899;42.644;23.366;2023-02-17T01:26:24;95100.41;;;0.59;100.00
9721;BME280;4899;42.644;23.366;2023-02-17T01:28:51;95085.56;;;0.63;100.00
9721;BME280;4899;42.644;23.366;2023-02-17T01:31:18;95095.22;;;0.66;100.00
9721;BME280;4899;42.644;23.366;2023-02-17T01:33:44;95085.88;;;0.67;100.00
9721;BME280;4899;42.644;23.366;2023-02-17T01:36:12;95080.03;;;0.66;100.00
9721;BME280;4899;42.644;23.366;2023-02-17T01:38:37;95088.84;;;0.64;100.00
9721;BME280;4899;42.644;23.366;2023-02-17T01:41:04;95077.88;;;0.58;100.00
9721;BME280;4899;42.644;23.366;2023-02-17T01:43:30;95076.88;;;0.59;100.00
9721;BME280;4899;42.644;23.366;2023-02-17T01:45:57;95065.84;;;0.65;100.00
9721;BME280;4899;42.644;23.366;2023-02-17T01:48:28;95085.88;;;0.78;100.00
9721;BME280;4899;42.644;23.366;2023-02-17T01:51:06;95083.31;;;0.78;100.00
9721;BME280;4899;42.644;23.366;2023-02-17T01:53:58;95084.31;;;0.77;100.00
9721;BME280;4899;42.644;23.366;2023-02-17T01:56:34;95084.88;;;0.79;100.00
9721;BME280;4899;42.644;23.366;2023-02-17T01:59:04;95080.69;;;0.73;100.00
9721;BME280;4899;42.644;23.366;2023-02-17T02:01:34;95083.66;;;0.70;100.00
9721;BME280;4899;42.644;23.366;2023-02-17T02:04:02;95085.31;;;0.65;100.00
9721;BME280;4899;42.644;23.366;2023-02-17T02:06:37;95089.16;;;0.67;100.00
9721;BME280;4899;42.644;23.366;2023-02-17T02:09:25;95078.59;;;0.70;100.00
9721;BME280;4899;42.644;23.366;2023-02-17T02:11:52;95067.59;;;0.65;100.00
9721;BME280;4899;42.644;23.366;2023-02-17T02:14:20;95077.41;;;0.61;100.00
9721;BME280;4899;42.644;23.366;2023-02-17T02:34:13;95074.03;;;0.20;100.00
9721;BME280;4899;42.644;23.366;2023-02-17T02:36:59;95077.44;;;0.14;100.00
9721;BME280;4899;42.644;23.366;2023-02-17T02:39:33;95069.84;;;-0.09;100.00
9721;BME280;4899;42.644;23.366;2023-02-17T02:42:06;95084.28;;;0.02;100.00
9721;BME280;4899;42.644;23.366;2023-02-17T02:44:32;95076.00;;;-0.05;100.00
9721;BME280;4899;42.644;23.366;2023-02-17T02:50:06;95069.72;;;-0.03;100.00
9721;BME280;4899;42.644;23.366;2023-02-17T02:52:55;95079.44;;;0.12;100.00
9721;BME280;4899;42.644;23.366;2023-02-17T02:55:36;95081.50;;;0.15;100.00
9721;BME280;4899;42.644;23.366;2023-02-17T02:58:17;95071.63;;;0.14;100.00
9721;BME280;4899;42.644;23.366;2023-02-17T03:06:07;95086.22;;;0.23;100.00
9721;BME280;4899;42.644;23.366;2023-02-17T03:08:41;95086.81;;;0.25;100.00
9721;BME280;4899;42.644;23.366;2023-02-17T03:11:11;95086.91;;;0.30;100.00
9721;BME280;4899;42.644;23.366;2023-02-17T03:13:37;95077.44;;;0.38;100.00
9721;BME280;4899;42.644;23.366;2023-02-17T03:16:06;95075.09;;;0.48;100.00
9721;BME280;4899;42.644;23.366;2023-02-17T03:18:34;95075.56;;;0.56;100.00
9721;BME280;4899;42.644;23.366;2023-02-17T03:21:13;95079.41;;;0.59;100.00
9721;BME280;4899;42.644;23.366;2023-02-17T03:23:39;95081.94;;;0.59;100.00
9721;BME280;4899;42.644;23.366;2023-02-17T03:26:04;95073.03;;;0.56;100.00
9721;BME280;4899;42.644;23.366;2023-02-17T03:28:30;95083.59;;;0.53;100.00
9721;BME280;4899;42.644;23.366;2023-02-17T03:30:55;95068.28;;;0.48;100.00
9721;BME280;4899;42.644;23.366;2023-02-17T03:33:21;95060.19;;;0.35;100.00
9721;BME280;4899;42.644;23.366;2023-02-17T03:35:47;95092.28;;;0.46;100.00
9721;BME280;4899;42.644;23.366;2023-02-17T03:38:13;95073.91;;;0.39;100.00
9721;BME280;4899;42.644;23.366;2023-02-17T03:40:43;95084.47;;;0.36;100.00
9721;BME280;4899;42.644;23.366;2023-02-17T03:43:08;95076.25;;;0.28;100.00
9721;BME280;4899;42.644;23.366;2023-02-17T03:45:36;95067.44;;;0.19;100.00
9721;BME280;4899;42.644;23.366;2023-02-17T03:48:13;95075.78;;;0.20;100.00
9721;BME280;4899;42.644;23.366;2023-02-17T03:50:39;95075.47;;;0.16;100.00
9721;BME280;4899;42.644;23.366;2023-02-17T03:53:05;95058.31;;;0.07;100.00
9721;BME280;4899;42.644;23.366;2023-02-17T03:55:31;95061.63;;;0.07;100.00
9721;BME280;4899;42.644;23.366;2023-02-17T03:58:03;95063.16;;;0.08;100.00
9721;BME280;4899;42.644;23.366;2023-02-17T04:00:28;95076.31;;;-0.02;100.00
9721;BME280;4899;42.644;23.366;2023-02-17T04:03:05;95065.22;;;-0.12;100.00
9721;BME280;4899;42.644;23.366;2023-02-17T04:05:30;95061.16;;;-0.13;100.00
9721;BME280;4899;42.644;23.366;2023-02-17T04:07:58;95063.47;;;-0.12;100.00
9721;BME280;4899;42.644;23.366;2023-02-17T04:10:23;95077.22;;;-0.08;100.00
9721;BME280;4899;42.644;23.366;2023-02-17T04:12:56;95073.03;;;-0.02;100.00
9721;BME280;4899;42.644;23.366;2023-02-17T04:15:22;95070.94;;;-0.05;100.00
9721;BME280;4899;42.644;23.366;2023-02-17T04:17:47;95068.19;;;-0.15;100.00
9721;BME280;4899;42.644;23.366;2023-02-17T04:20:12;95074.69;;;-0.08;100.00
9721;BME280;4899;42.644;23.366;2023-02-17T04:22:38;95066.22;;;-0.13;100.00
9721;BME280;4899;42.644;23.366;2023-02-17T04:25:04;95065.34;;;-0.07;100.00
9721;BME280;4899;42.644;23.366;2023-02-17T04:27:29;95085.03;;;0.03;100.00
9721;BME280;4899;42.644;23.366;2023-02-17T04:30:01;95076.69;;;0.02;100.00
9721;BME280;4899;42.644;23.366;2023-02-17T04:32:26;95078.56;;;0.07;100.00
9721;BME280;4899;42.644;23.366;2023-02-17T04:34:51;95067.56;;;0.01;100.00
9721;BME280;4899;42.644;23.366;2023-02-17T04:37:17;95076.03;;;0.07;100.00
9721;BME280;4899;42.644;23.366;2023-02-17T04:39:46;95063.34;;;-0.05;100.00
9721;BME280;4899;42.644;23.366;2023-02-17T04:42:11;95085.81;;;0.03;100.00
9721;BME280;4899;42.644;23.366;2023-02-17T04:44:37;95070.28;;;-0.12;100.00
9721;BME280;4899;42.644;23.366;2023-02-17T04:47:02;95083.16;;;-0.14;100.00
9721;BME280;4899;42.644;23.366;2023-02-17T04:49:28;95068.63;;;-0.18;100.00
9721;BME280;4899;42.644;23.366;2023-02-17T04:51:53;95080.19;;;-0.11;100.00
9721;BME280;4899;42.644;23.366;2023-02-17T04:54:22;95081.16;;;-0.12;100.00
9721;BME280;4899;42.644;23.366;2023-02-17T04:56:47;95086.13;;;-0.05;100.00
9721;BME280;4899;42.644;23.366;2023-02-17T04:59:13;95080.50;;;-0.07;100.00
9721;BME280;4899;42.644;23.366;2023-02-17T05:01:38;95080.75;;;0.03;100.00
9721;BME280;4899;42.644;23.366;2023-02-17T05:04:04;95078.78;;;0.05;100.00
9721;BME280;4899;42.644;23.366;2023-02-17T05:06:29;95085.25;;;0.13;100.00
9721;BME280;4899;42.644;23.366;2023-02-17T05:08:57;95081.31;;;0.05;100.00
9721;BME280;4899;42.644;23.366;2023-02-17T05:11:23;95086.69;;;0.09;100.00
9721;BME280;4899;42.644;23.366;2023-02-17T05:13:48;95089.22;;;0.09;100.00
9721;BME280;4899;42.644;23.366;2023-02-17T05:16:14;95104.59;;;0.19;100.00
9721;BME280;4899;42.644;23.366;2023-02-17T05:18:39;95103.16;;;0.23;100.00
9721;BME280;4899;42.644;23.366;2023-02-17T05:21:05;95080.72;;;0.38;100.00
9721;BME280;4899;42.644;23.366;2023-02-17T05:23:31;95083.47;;;0.60;100.00
9721;BME280;4899;42.644;23.366;2023-02-17T05:25:56;95114.72;;;0.77;100.00
9721;BME280;4899;42.644;23.366;2023-02-17T05:28:22;95109.97;;;0.81;100.00
9721;BME280;4899;42.644;23.366;2023-02-17T05:30:48;95116.34;;;0.83;100.00
9721;BME280;4899;42.644;23.366;2023-02-17T05:33:14;95114.03;;;0.82;100.00
9721;BME280;4899;42.644;23.366;2023-02-17T05:35:40;95117.88;;;0.84;100.00
9721;BME280;4899;42.644;23.366;2023-02-17T05:38:05;95138.69;;;0.86;100.00
9721;BME280;4899;42.644;23.366;2023-02-17T05:40:32;95120.41;;;0.73;100.00
9721;BME280;4899;42.644;23.366;2023-02-17T05:42:58;95096.44;;;0.64;100.00
9721;BME280;4899;42.644;23.366;2023-02-17T05:45:23;95125.91;;;0.81;100.00
9721;BME280;4899;42.644;23.366;2023-02-17T05:47:49;95125.16;;;0.81;100.00
9721;BME280;4899;42.644;23.366;2023-02-17T05:50:14;95140.13;;;0.82;100.00
9721;BME280;4899;42.644;23.366;2023-02-17T05:52:39;95135.50;;;0.79;100.00
9721;BME280;4899;42.644;23.366;2023-02-17T05:55:18;95139.69;;;0.85;100.00
9721;BME280;4899;42.644;23.366;2023-02-17T05:57:44;95144.50;;;0.87;100.00
9721;BME280;4899;42.644;23.366;2023-02-17T06:00:10;95140.41;;;0.98;100.00
9721;BME280;4899;42.644;23.366;2023-02-17T06:02:36;95140.19;;;0.99;100.00
9721;BME280;4899;42.644;23.366;2023-02-17T06:05:08;95136.34;;;0.97;100.00
9721;BME280;4899;42.644;23.366;2023-02-17T06:07:33;95142.94;;;0.98;100.00
9721;BME280;4899;42.644;23.366;2023-02-17T06:09:59;95126.75;;;0.99;100.00
9721;BME280;4899;42.644;23.366;2023-02-17T06:12:26;95141.25;;;1.15;100.00
9721;BME280;4899;42.644;23.366;2023-02-17T06:14:52;95132.56;;;1.11;100.00
9721;BME280;4899;42.644;23.366;2023-02-17T06:17:18;95143.13;;;1.19;100.00
9721;BME280;4899;42.644;23.366;2023-02-17T06:19:43;95140.56;;;1.31;100.00
9721;BME280;4899;42.644;23.366;2023-02-17T06:22:09;95144.34;;;1.45;100.00
9721;BME280;4899;42.644;23.366;2023-02-17T06:24:34;95147.41;;;1.47;100.00
9721;BME280;4899;42.644;23.366;2023-02-17T06:27:07;95154.69;;;1.56;100.00
9721;BME280;4899;42.644;23.366;2023-02-17T06:29:32;95147.09;;;1.56;100.00
9721;BME280;4899;42.644;23.366;2023-02-17T06:32:06;95141.72;;;1.69;100.00
9721;BME280;4899;42.644;23.366;2023-02-17T06:34:31;95140.91;;;1.80;100.00
9721;BME280;4899;42.644;23.366;2023-02-17T06:36:57;95151.06;;;1.97;100.00
9721;BME280;4899;42.644;23.366;2023-02-17T06:39:22;95154.06;;;2.10;100.00
9721;BME280;4899;42.644;23.366;2023-02-17T06:41:49;95156.75;;;2.21;100.00
9721;BME280;4899;42.644;23.366;2023-02-17T06:44:15;95124.47;;;1.99;100.00
9721;BME280;4899;42.644;23.366;2023-02-17T06:46:40;95156.84;;;2.26;100.00
9721;BME280;4899;42.644;23.366;2023-02-17T06:49:06;95163.00;;;2.30;100.00
9721;BME280;4899;42.644;23.366;2023-02-17T06:51:32;95164.25;;;2.27;100.00
9721;BME280;4899;42.644;23.366;2023-02-17T06:53:58;95171.56;;;2.24;100.00
9721;BME280;4899;42.644;23.366;2023-02-17T06:56:23;95169.44;;;2.21;100.00
9721;BME280;4899;42.644;23.366;2023-02-17T06:58:50;95180.78;;;2.30;100.00
9721;BME280;4899;42.644;23.366;2023-02-17T07:01:22;95174.53;;;2.37;100.00
9721;BME280;4899;42.644;23.366;2023-02-17T07:03:53;95178.22;;;2.46;100.00
9721;BME280;4899;42.644;23.366;2023-02-17T07:06:20;95180.63;;;2.53;100.00
9721;BME280;4899;42.644;23.366;2023-02-17T07:08:47;95171.53;;;2.57;100.00
9721;BME280;4899;42.644;23.366;2023-02-17T07:11:14;95178.50;;;2.67;100.00
9721;BME280;4899;42.644;23.366;2023-02-17T07:13:40;95168.59;;;2.65;100.00
9721;BME280;4899;42.644;23.366;2023-02-17T07:16:07;95181.97;;;2.77;100.00
9721;BME280;4899;42.644;23.366;2023-02-17T07:18:33;95184.56;;;2.83;100.00
9721;BME280;4899;42.644;23.366;2023-02-17T07:20:59;95187.72;;;2.90;100.00
9721;BME280;4899;42.644;23.366;2023-02-17T07:23:25;95170.69;;;2.90;100.00
9721;BME280;4899;42.644;23.366;2023-02-17T07:25:50;95184.31;;;3.01;100.00
9721;BME280;4899;42.644;23.366;2023-02-17T07:28:16;95190.81;;;3.14;100.00
9721;BME280;4899;42.644;23.366;2023-02-17T07:30:42;95188.66;;;3.22;100.00
9721;BME280;4899;42.644;23.366;2023-02-17T07:33:10;95192.53;;;3.30;100.00
9721;BME280;4899;42.644;23.366;2023-02-17T07:35:44;95188.34;;;3.40;100.00
9721;BME280;4899;42.644;23.366;2023-02-17T07:38:10;95149.03;;;3.26;100.00
9721;BME280;4899;42.644;23.366;2023-02-17T07:40:45;95199.84;;;3.70;100.00
9721;BME280;4899;42.644;23.366;2023-02-17T07:43:11;95203.81;;;3.83;100.00
9721;BME280;4899;42.644;23.366;2023-02-17T07:45:36;95192.38;;;3.85;100.00
9721;BME280;4899;42.644;23.366;2023-02-17T07:48:02;95192.75;;;3.99;100.00
9721;BME280;4899;42.644;23.366;2023-02-17T07:50:27;95192.56;;;4.06;100.00
9721;BME280;4899;42.644;23.366;2023-02-17T07:52:53;95193.16;;;4.18;100.00
9721;BME280;4899;42.644;23.366;2023-02-17T07:55:24;95201.16;;;4.26;100.00
9721;BME280;4899;42.644;23.366;2023-02-17T07:57:50;95182.34;;;4.32;99.80
9721;BME280;4899;42.644;23.366;2023-02-17T08:00:17;95192.09;;;4.46;99.36
9721;BME280;4899;42.644;23.366;2023-02-17T08:02:42;95188.84;;;4.50;98.67
9721;BME280;4899;42.644;23.366;2023-02-17T08:05:09;95193.00;;;4.61;98.18
9721;BME280;4899;42.644;23.366;2023-02-17T08:07:35;95192.53;;;4.70;96.66
9721;BME280;4899;42.644;23.366;2023-02-17T08:10:00;95194.91;;;4.81;95.09
9721;BME280;4899;42.644;23.366;2023-02-17T08:12:55;95190.13;;;4.90;93.46
9721;BME280;4899;42.644;23.366;2023-02-17T08:15:39;95186.34;;;4.98;92.39
9721;BME280;4899;42.644;23.366;2023-02-17T08:18:05;95198.38;;;5.12;92.88
9721;BME280;4899;42.644;23.366;2023-02-17T08:20:31;95196.19;;;5.26;92.74
9721;BME280;4899;42.644;23.366;2023-02-17T08:22:57;95193.38;;;5.33;91.22
9721;BME280;4899;42.644;23.366;2023-02-17T08:25:22;95202.91;;;5.47;89.78
9721;BME280;4899;42.644;23.366;2023-02-17T08:27:48;95189.41;;;5.62;89.81
9721;BME280;4899;42.644;23.366;2023-02-17T08:30:13;95180.25;;;5.71;88.49
9721;BME280;4899;42.644;23.366;2023-02-17T08:32:39;95188.19;;;5.85;87.95
9721;BME280;4899;42.644;23.366;2023-02-17T08:35:04;95184.91;;;5.95;87.37
9721;BME280;4899;42.644;23.366;2023-02-17T08:37:42;95185.44;;;6.12;86.21
9721;BME280;4899;42.644;23.366;2023-02-17T08:40:08;95171.16;;;6.21;84.57
9721;BME280;4899;42.644;23.366;2023-02-17T08:42:33;95180.59;;;6.36;83.87
9721;BME280;4899;42.644;23.366;2023-02-17T08:44:59;95187.00;;;6.48;81.97
9721;BME280;4899;42.644;23.366;2023-02-17T08:47:31;95187.47;;;6.66;81.48
9721;BME280;4899;42.644;23.366;2023-02-17T08:49:56;95189.00;;;6.82;79.19
9721;BME280;4899;42.644;23.366;2023-02-17T08:52:28;95184.88;;;6.91;79.05
9721;BME280;4899;42.644;23.366;2023-02-17T08:54:54;95188.72;;;7.04;77.42
9721;BME280;4899;42.644;23.366;2023-02-17T08:57:20;95188.41;;;7.16;77.67
9721;BME280;4899;42.644;23.366;2023-02-17T08:59:46;95189.41;;;7.30;76.05
9721;BME280;4899;42.644;23.366;2023-02-17T09:02:13;95185.00;;;7.46;74.79
9721;BME280;4899;42.644;23.366;2023-02-17T09:04:39;95190.78;;;7.61;72.83
9721;BME280;4899;42.644;23.366;2023-02-17T09:07:09;95174.13;;;7.64;71.55
9721;BME280;4899;42.644;23.366;2023-02-17T09:09:35;95187.88;;;7.83;70.72
9721;BME280;4899;42.644;23.366;2023-02-17T09:12:00;95186.50;;;8.01;71.14
9721;BME280;4899;42.644;23.366;2023-02-17T09:14:26;95190.47;;;8.17;70.73
9721;BME280;4899;42.644;23.366;2023-02-17T09:16:53;95181.69;;;8.28;68.79
9721;BME280;4899;42.644;23.366;2023-02-17T09:19:19;95179.06;;;8.44;67.76
9721;BME280;4899;42.644;23.366;2023-02-17T09:21:45;95179.63;;;8.64;67.71
9721;BME280;4899;42.644;23.366;2023-02-17T09:24:12;95182.06;;;8.80;66.80
9721;BME280;4899;42.644;23.366;2023-02-17T09:26:45;95186.56;;;8.93;63.59
9721;BME280;4899;42.644;23.366;2023-02-17T09:29:10;95181.53;;;9.07;64.11
9721;BME280;4899;42.644;23.366;2023-02-17T09:31:37;95176.28;;;9.17;64.10
9721;BME280;4899;42.644;23.366;2023-02-17T09:34:06;95176.94;;;9.28;63.76
9721;BME280;4899;42.644;23.366;2023-02-17T09:36:36;95172.91;;;9.45;62.17
9721;BME280;4899;42.644;23.366;2023-02-17T09:39:04;95173.72;;;9.60;63.18
9721;BME280;4899;42.644;23.366;2023-02-17T09:43:59;95168.75;;;9.87;61.16
9721;BME280;4899;42.644;23.366;2023-02-17T09:49:45;95176.75;;;10.23;59.26
9721;BME280;4899;42.644;23.366;2023-02-17T09:55:28;95173.41;;;10.55;56.80
9721;BME280;4899;42.644;23.366;2023-02-17T09:58:02;95170.03;;;10.73;55.08
9721;BME280;4899;42.644;23.366;2023-02-17T10:00:37;95166.97;;;10.85;56.09
9721;BME280;4899;42.644;23.366;2023-02-17T10:03:19;95170.25;;;11.04;55.65
9721;BME280;4899;42.644;23.366;2023-02-17T10:08:31;95159.56;;;11.38;44.41
9721;BME280;4899;42.644;23.366;2023-02-17T10:11:28;95164.09;;;11.69;41.88
9721;BME280;4899;42.644;23.366;2023-02-17T10:14:09;95159.38;;;11.98;43.04
9721;BME280;4899;42.644;23.366;2023-02-17T10:16:46;95170.31;;;12.18;41.65
9721;BME280;4899;42.644;23.366;2023-02-17T10:19:20;95175.22;;;12.28;42.66
9721;BME280;4899;42.644;23.366;2023-02-17T10:21:56;95165.94;;;12.27;40.97
9721;BME280;4899;42.644;23.366;2023-02-17T10:24:23;95154.00;;;12.31;41.33
9721;BME280;4899;42.644;23.366;2023-02-17T10:26:59;95157.97;;;12.37;40.06
9721;BME280;4899;42.644;23.366;2023-02-17T10:33:11;95152.91;;;12.54;38.94
9721;BME280;4899;42.644;23.366;2023-02-17T10:41:02;95127.38;;;12.75;37.87
9721;BME280;4899;42.644;23.366;2023-02-17T10:43:30;95138.78;;;12.83;37.67
9721;BME280;4899;42.644;23.366;2023-02-17T10:45:59;95140.13;;;12.80;39.18
9721;BME280;4899;42.644;23.366;2023-02-17T10:50:58;95143.09;;;12.96;39.86
9721;BME280;4899;42.644;23.366;2023-02-17T10:53:29;95136.41;;;12.95;38.70
9721;BME280;4899;42.644;23.366;2023-02-17T10:58:32;95127.78;;;13.08;38.31
9721;BME280;4899;42.644;23.366;2023-02-17T11:00:59;95146.03;;;13.12;39.04
9721;BME280;4899;42.644;23.366;2023-02-17T11:03:34;95137.03;;;13.01;36.99
9721;BME280;4899;42.644;23.366;2023-02-17T11:06:04;95137.66;;;13.06;38.21
9721;BME280;4899;42.644;23.366;2023-02-17T11:08:38;95128.63;;;13.17;39.08
9721;BME280;4899;42.644;23.366;2023-02-17T11:13:45;95128.16;;;13.24;37.25
9721;BME280;4899;42.644;23.366;2023-02-17T11:16:32;95113.25;;;13.21;36.43
9721;BME280;4899;42.644;23.366;2023-02-17T11:19:22;95109.94;;;13.29;36.30
9721;BME280;4899;42.644;23.366;2023-02-17T11:21:50;95118.63;;;13.42;37.99
9721;BME280;4899;42.644;23.366;2023-02-17T11:24:24;95133.53;;;13.45;37.33
9721;BME280;4899;42.644;23.366;2023-02-17T11:29:29;95121.03;;;13.38;37.67
9721;BME280;4899;42.644;23.366;2023-02-17T11:32:06;95114.69;;;13.44;37.63
9721;BME280;4899;42.644;23.366;2023-02-17T11:34:38;95101.16;;;13.56;38.00
9721;BME280;4899;42.644;23.366;2023-02-17T11:37:21;95103.13;;;13.50;35.60
9721;BME280;4899;42.644;23.366;2023-02-17T11:39:50;95090.34;;;13.54;36.53
9721;BME280;4899;42.644;23.366;2023-02-17T11:44:51;95096.75;;;13.91;37.34
9721;BME280;4899;42.644;23.366;2023-02-17T11:47:42;95081.59;;;14.36;35.62
9721;BME280;4899;42.644;23.366;2023-02-17T11:50:30;95106.06;;;15.03;36.32
9721;BME280;4899;42.644;23.366;2023-02-17T12:07:13;95042.56;;;19.29;31.88
9721;BME280;4899;42.644;23.366;2023-02-17T12:09:28;95016.56;;;19.52;31.10
9721;BME280;4899;42.644;23.366;2023-02-17T12:24:01;95003.44;;;20.52;29.25
9721;BME280;4899;42.644;23.366;2023-02-17T12:26:35;95013.69;;;20.87;30.54
9721;BME280;4899;42.644;23.366;2023-02-17T12:34:32;94971.44;;;21.15;29.83
9721;BME280;4899;42.644;23.366;2023-02-17T12:37:00;94978.69;;;21.26;29.54
9721;BME280;4899;42.644;23.366;2023-02-17T12:39:42;94969.22;;;21.47;28.90
9721;BME280;4899;42.644;23.366;2023-02-17T12:42:19;94983.88;;;20.96;28.79
9721;BME280;4899;42.644;23.366;2023-02-17T12:44:59;94957.44;;;20.74;27.52
9721;BME280;4899;42.644;23.366;2023-02-17T12:50:24;94943.91;;;20.95;27.77
9721;BME280;4899;42.644;23.366;2023-02-17T12:52:55;94960.78;;;21.61;29.93
9721;BME280;4899;42.644;23.366;2023-02-17T12:55:38;94936.25;;;21.80;26.85
9721;BME280;4899;42.644;23.366;2023-02-17T12:58:11;94951.41;;;21.60;27.65
9721;BME280;4899;42.644;23.366;2023-02-17T13:00:58;94927.44;;;21.99;26.42
9721;BME280;4899;42.644;23.366;2023-02-17T13:03:30;94923.84;;;22.14;28.22
9721;BME280;4899;42.644;23.366;2023-02-17T13:06:22;94933.97;;;22.74;27.87
9721;BME280;4899;42.644;23.366;2023-02-17T13:08:52;94935.09;;;22.73;27.63
9721;BME280;4899;42.644;23.366;2023-02-17T13:11:30;94915.09;;;22.47;26.06
9721;BME280;4899;42.644;23.366;2023-02-17T13:14:11;94927.69;;;22.27;25.96
9721;BME280;4899;42.644;23.366;2023-02-17T13:16:44;94921.78;;;22.37;26.82
9721;BME280;4899;42.644;23.366;2023-02-17T13:19:14;94932.03;;;21.68;27.69
9721;BME280;4899;42.644;23.366;2023-02-17T13:21:52;94908.28;;;22.35;26.11
9721;BME280;4899;42.644;23.366;2023-02-17T13:26:56;94921.00;;;22.95;27.55
9721;BME280;4899;42.644;23.366;2023-02-17T13:31:59;94921.81;;;23.07;27.12
9721;BME280;4899;42.644;23.366;2023-02-17T13:34:33;94908.59;;;22.30;26.38
9721;BME280;4899;42.644;23.366;2023-02-17T13:37:01;94899.16;;;22.15;26.20
9721;BME280;4899;42.644;23.366;2023-02-17T13:39:33;94899.44;;;22.58;25.99
9721;BME280;4899;42.644;23.366;2023-02-17T13:41:59;94908.13;;;22.72;26.38
9721;BME280;4899;42.644;23.366;2023-02-17T13:44:27;94908.91;;;22.80;26.55
9721;BME280;4899;42.644;23.366;2023-02-17T13:46:59;94908.31;;;22.42;25.25
9721;BME280;4899;42.644;23.366;2023-02-17T13:49:29;94889.47;;;22.23;26.25
9721;BME280;4899;42.644;23.366;2023-02-17T13:54:34;94893.81;;;22.04;26.07
9721;BME280;4899;42.644;23.366;2023-02-17T13:56:59;94882.47;;;21.90;25.79
9721;BME280;4899;42.644;23.366;2023-02-17T13:59:25;94885.41;;;21.85;25.39
9721;BME280;4899;42.644;23.366;2023-02-17T14:01:52;94887.28;;;21.84;26.10
9721;BME280;4899;42.644;23.366;2023-02-17T14:04:23;94877.69;;;21.58;25.37
9721;BME280;4899;42.644;23.366;2023-02-17T14:06:49;94910.47;;;21.11;25.93
9721;BME280;4899;42.644;23.366;2023-02-17T14:09:22;94909.53;;;20.97;25.89
9721;BME280;4899;42.644;23.366;2023-02-17T14:11:49;94892.63;;;20.34;25.15
9721;BME280;4899;42.644;23.366;2023-02-17T14:14:16;94874.41;;;19.88;25.64
9721;BME280;4899;42.644;23.366;2023-02-17T14:16:42;94892.50;;;20.01;25.23
9721;BME280;4899;42.644;23.366;2023-02-17T14:19:14;94911.22;;;20.06;25.45
9721;BME280;4899;42.644;23.366;2023-02-17T14:21:43;94895.31;;;20.15;25.28
9721;BME280;4899;42.644;23.366;2023-02-17T14:24:33;94896.00;;;20.61;24.35
9721;BME280;4899;42.644;23.366;2023-02-17T14:29:25;94902.38;;;21.57;25.76
9721;BME280;4899;42.644;23.366;2023-02-17T14:31:51;94920.28;;;20.88;25.78
9721;BME280;4899;42.644;23.366;2023-02-17T14:34:30;94924.47;;;18.94;27.52
9721;BME280;4899;42.644;23.366;2023-02-17T14:37:23;94938.13;;;18.05;28.16
9721;BME280;4899;42.644;23.366;2023-02-17T14:39:50;94951.56;;;18.23;28.45
9721;BME280;4899;42.644;23.366;2023-02-17T14:42:15;94970.41;;;18.83;28.02
9721;BME280;4899;42.644;23.366;2023-02-17T14:44:41;94959.44;;;19.47;28.05
9721;BME280;4899;42.644;23.366;2023-02-17T14:47:07;94975.09;;;19.86;27.86
9721;BME280;4899;42.644;23.366;2023-02-17T14:49:33;94955.56;;;20.03;27.82
9721;BME280;4899;42.644;23.366;2023-02-17T14:52:00;94947.69;;;20.22;27.58
9721;BME280;4899;42.644;23.366;2023-02-17T14:54:37;94949.09;;;20.16;27.74
9721;BME280;4899;42.644;23.366;2023-02-17T14:57:06;94955.94;;;20.24;27.92
9721;BME280;4899;42.644;23.366;2023-02-17T14:59:32;94963.75;;;20.24;28.04
9721;BME280;4899;42.644;23.366;2023-02-17T15:01:58;94967.06;;;20.21;28.19
9721;BME280;4899;42.644;23.366;2023-02-17T15:04:24;94967.59;;;20.53;28.02
9721;BME280;4899;42.644;23.366;2023-02-17T15:06:50;94954.06;;;20.47;28.14